createdAt,value
2022-08-03T00:01:08.290Z,101048.47
2022-08-03T00:03:41.324Z,101050.16
2022-08-03T00:06:14.184Z,101042.19
2022-08-03T00:08:48.552Z,101051.81
2022-08-03T00:11:22.970Z,101049.03
2022-08-03T00:13:55.935Z,101048.97
2022-08-03T00:16:28.818Z,101052.44
2022-08-03T00:19:02.405Z,101046.16
2022-08-03T00:21:35.338Z,101046.94
2022-08-03T00:24:08.500Z,101048.69
2022-08-03T00:26:42.808Z,101045.94
2022-08-03T00:29:15.805Z,101040.59
2022-08-03T00:31:59.126Z,101044.94
2022-08-03T00:34:57.185Z,101036.03
2022-08-03T00:37:40.777Z,101039.53
2022-08-03T00:40:16.931Z,101035.09
2022-08-03T00:42:55.663Z,101035.84
2022-08-03T00:45:29.505Z,101029.59
2022-08-03T00:48:03.289Z,101026.88
2022-08-03T00:50:39.484Z,101033.88
2022-08-03T00:53:13.558Z,101028.50
2022-08-03T00:55:46.877Z,101029.34
2022-08-03T00:58:21.182Z,101033.72
2022-08-03T01:00:54.612Z,101035.38
2022-08-03T01:03:28.039Z,101044.06
2022-08-03T01:06:09.512Z,101037.78
2022-08-03T01:08:47.881Z,101031.50
2022-08-03T01:11:28.975Z,101037.66
2022-08-03T01:14:18.588Z,101031.38
2022-08-03T01:16:58.682Z,101032.19
2022-08-03T01:19:43.652Z,101032.16
2022-08-03T01:22:38.175Z,101031.22
2022-08-03T01:25:22.094Z,101029.41
2022-08-03T01:28:04.059Z,101038.22
2022-08-03T01:30:40.343Z,101026.72
2022-08-03T01:33:18.789Z,101026.72
2022-08-03T01:35:59.490Z,101021.41
2022-08-03T01:38:35.091Z,101022.19
2022-08-03T01:41:11.943Z,101019.41
2022-08-03T01:44:28.544Z,101024.59
2022-08-03T01:46:48.887Z,101025.34
2022-08-03T01:49:22.073Z,101016.47
2022-08-03T01:52:04.158Z,101021.72
2022-08-03T01:54:43.387Z,101025.22
2022-08-03T01:57:17.690Z,101017.31
2022-08-03T01:59:52.027Z,101021.72
2022-08-03T02:02:32.794Z,101016.25
2022-08-03T02:05:11.379Z,101013.56
2022-08-03T02:07:47.333Z,101010.03
2022-08-03T02:10:35.238Z,101004.72
2022-08-03T02:13:10.662Z,101016.97
2022-08-03T02:15:44.947Z,101009.00
2022-08-03T02:18:21.392Z,101008.94
2022-08-03T02:20:55.773Z,101010.63
2022-08-03T02:23:28.702Z,101012.19
2022-08-03T02:26:04.244Z,101011.31
2022-08-03T02:28:41.036Z,101011.31
2022-08-03T02:31:17.675Z,101010.38
2022-08-03T02:33:55.180Z,101005.00
2022-08-03T02:36:31.844Z,100993.53
2022-08-03T02:39:05.572Z,100997.94
2022-08-03T02:41:46.471Z,101004.94
2022-08-03T02:44:25.797Z,100996.94
2022-08-03T02:47:03.159Z,100993.38
2022-08-03T02:49:50.633Z,100992.50
2022-08-03T02:52:29.486Z,100999.50
2022-08-03T02:55:05.545Z,100995.03
2022-08-03T02:57:40.260Z,100998.56
2022-08-03T03:00:27.314Z,100991.59
2022-08-03T03:03:03.948Z,100994.31
2022-08-03T03:05:55.712Z,100998.75
2022-08-03T03:08:31.134Z,100996.16
2022-08-03T03:11:04.552Z,100997.13
2022-08-03T03:13:38.638Z,100989.22
2022-08-03T03:16:14.154Z,100988.25
2022-08-03T03:18:49.779Z,100991.78
2022-08-03T03:21:24.841Z,100995.25
2022-08-03T03:23:59.868Z,100999.69
2022-08-03T03:26:34.222Z,101000.47
2022-08-03T03:29:08.273Z,100999.56
2022-08-03T03:31:44.098Z,101000.44
2022-08-03T03:34:18.134Z,100997.78
2022-08-03T03:36:52.449Z,100999.53
2022-08-03T03:39:25.812Z,100995.78
2022-08-03T03:41:59.124Z,100996.63
2022-08-03T03:44:32.619Z,101000.13
2022-08-03T03:47:05.673Z,101002.72
2022-08-03T03:49:38.861Z,100992.19
2022-08-03T03:52:13.301Z,100993.94
2022-08-03T03:54:46.793Z,100987.69
2022-08-03T03:57:19.798Z,101000.75
2022-08-03T03:59:53.072Z,100998.91
2022-08-03T04:02:26.251Z,101004.25
2022-08-03T04:05:28.150Z,101003.22
2022-08-03T04:08:24.997Z,100999.47
2022-08-03T04:11:15.766Z,100993.34
2022-08-03T04:13:52.603Z,101000.41
2022-08-03T04:16:29.960Z,100995.13
2022-08-03T04:19:07.111Z,100997.84
2022-08-03T04:21:44.418Z,100999.69
2022-08-03T04:24:21.986Z,101001.50
2022-08-03T04:27:01.860Z,100998.91
2022-08-03T04:29:39.994Z,101003.31
2022-08-03T04:32:25.210Z,101003.38
2022-08-03T04:34:58.649Z,100997.31
2022-08-03T04:37:39.280Z,101000.94
2022-08-03T04:40:16.786Z,101001.00
2022-08-03T04:42:56.167Z,101002.78
2022-08-03T04:45:31.394Z,101002.00
2022-08-03T04:48:05.862Z,101002.13
2022-08-03T04:50:38.950Z,101003.16
2022-08-03T04:53:12.504Z,101005.13
2022-08-03T04:55:47.322Z,101007.94
2022-08-03T04:58:20.558Z,101008.97
2022-08-03T05:00:53.499Z,101011.78
2022-08-03T05:03:26.588Z,101018.16
2022-08-03T05:06:01.730Z,101011.25
2022-08-03T05:08:35.137Z,101022.81
2022-08-03T05:11:20.492Z,101016.88
2022-08-03T05:13:53.481Z,101012.53
2022-08-03T05:16:26.800Z,101014.38
2022-08-03T05:19:05.048Z,101027.81
2022-08-03T05:21:51.146Z,101013.84
2022-08-03T05:24:26.455Z,101015.75
2022-08-03T05:27:00.762Z,101021.97
2022-08-03T05:29:34.110Z,101016.75
2022-08-03T05:32:08.432Z,101016.09
2022-08-03T05:34:41.716Z,101014.47
2022-08-03T05:37:14.658Z,101014.66
2022-08-03T05:39:47.777Z,101018.38
2022-08-03T05:42:22.201Z,101019.69
2022-08-03T05:44:55.261Z,101016.59
2022-08-03T05:47:28.278Z,101025.06
2022-08-03T05:50:01.391Z,101021.19
2022-08-03T05:52:34.290Z,101023.97
2022-08-03T05:55:08.246Z,101021.38
2022-08-03T05:57:43.627Z,101023.28
2022-08-03T06:00:19.591Z,101021.72
2022-08-03T06:02:54.894Z,101020.88
2022-08-03T06:05:28.319Z,101023.53
2022-08-03T06:08:01.183Z,101020.97
2022-08-03T06:10:37.964Z,101024.56
2022-08-03T06:13:12.805Z,101029.09
2022-08-03T06:15:46.080Z,101022.47
2022-08-03T06:18:19.021Z,101031.66
2022-08-03T06:20:52.445Z,101024.44
2022-08-03T06:23:53.102Z,101025.28
2022-08-03T06:26:18.575Z,101026.09
2022-08-03T06:28:54.416Z,101020.78
2022-08-03T06:31:32.975Z,101022.63
2022-08-03T06:34:32.658Z,101025.44
2022-08-03T06:37:02.281Z,101026.50
2022-08-03T06:39:35.523Z,101033.91
2022-08-03T06:42:09.860Z,101040.31
2022-08-03T06:44:44.315Z,101037.56
2022-08-03T06:47:17.259Z,101030.41
2022-08-03T06:50:12.398Z,101030.25
2022-08-03T06:52:43.112Z,101025.81
2022-08-03T06:55:15.942Z,101036.59
2022-08-03T06:57:48.978Z,101035.91
2022-08-03T07:00:23.720Z,101036.84
2022-08-03T07:02:58.391Z,101032.44
2022-08-03T07:05:33.455Z,101036.13
2022-08-03T07:08:07.013Z,101028.19
2022-08-03T07:10:40.148Z,101026.50
2022-08-03T07:13:13.510Z,101043.38
2022-08-03T07:15:55.666Z,101043.41
2022-08-03T07:18:29.913Z,101042.66
2022-08-03T07:21:03.220Z,101043.63
2022-08-03T07:23:36.259Z,101048.16
2022-08-03T07:26:09.317Z,101047.28
2022-08-03T07:28:42.302Z,101050.03
2022-08-03T07:31:16.532Z,101044.72
2022-08-03T07:33:54.790Z,101050.09
2022-08-03T07:36:27.692Z,101055.47
2022-08-03T07:39:00.962Z,101051.09
2022-08-03T07:41:51.503Z,101060.00
2022-08-03T07:44:25.605Z,101054.69
2022-08-03T07:46:59.992Z,101053.84
2022-08-03T07:49:40.553Z,101054.72
2022-08-03T07:52:31.225Z,101055.66
2022-08-03T07:55:06.316Z,101045.88
2022-08-03T07:57:43.195Z,101045.84
2022-08-03T08:00:19.322Z,101044.06
2022-08-03T08:02:56.686Z,101048.50
2022-08-03T08:05:30.465Z,101047.56
2022-08-03T08:08:04.432Z,101050.22
2022-08-03T08:10:37.608Z,101044.84
2022-08-03T08:13:11.198Z,101043.03
2022-08-03T08:15:44.288Z,101044.75
2022-08-03T08:18:19.796Z,101042.91
2022-08-03T08:20:52.893Z,101045.63
2022-08-03T08:23:41.781Z,101041.03
2022-08-03T08:26:16.628Z,101045.25
2022-08-03T08:28:49.488Z,101046.47
2022-08-03T08:31:22.525Z,101052.59
2022-08-03T08:34:04.693Z,101064.31
2022-08-03T08:36:38.035Z,101066.31
2022-08-03T08:39:12.163Z,101068.44
2022-08-03T08:41:53.448Z,101067.44
2022-08-03T08:44:26.384Z,101062.53
2022-08-03T08:47:04.125Z,101067.41
2022-08-03T08:49:49.440Z,101060.06
2022-08-03T08:52:32.779Z,101048.13
2022-08-03T08:55:08.375Z,101059.22
2022-08-03T08:57:48.130Z,101053.66
2022-08-03T09:00:21.551Z,101054.81
2022-08-03T09:02:54.900Z,101060.97
2022-08-03T09:05:55.020Z,101056.34
2022-08-03T09:08:25.715Z,101053.66
2022-08-03T09:10:59.279Z,101046.25
2022-08-03T09:13:33.793Z,101041.88
2022-08-03T09:16:11.973Z,101049.06
2022-08-03T09:18:47.036Z,101057.19
2022-08-03T09:21:32.514Z,101033.06
2022-08-03T09:24:16.480Z,101041.13
2022-08-03T09:26:54.021Z,101050.06
2022-08-03T09:29:27.275Z,101042.03
2022-08-03T09:32:03.066Z,101039.38
2022-08-03T09:34:37.395Z,101040.28
2022-08-03T09:37:16.445Z,101042.94
2022-08-03T09:39:49.821Z,101046.44
2022-08-03T09:42:24.292Z,101048.09
2022-08-03T09:44:58.046Z,101049.66
2022-08-03T09:47:33.387Z,101044.44
2022-08-03T09:50:09.056Z,101038.84
2022-08-03T09:52:52.283Z,101042.19
2022-08-03T09:56:33.067Z,101045.09
2022-08-03T09:58:19.214Z,101043.47
2022-08-03T10:01:03.836Z,101037.84
2022-08-03T10:04:02.927Z,101036.91
2022-08-03T10:06:32.819Z,101026.91
2022-08-03T10:09:10.081Z,101038.41
2022-08-03T10:11:44.246Z,101040.13
2022-08-03T10:14:19.910Z,101039.06
2022-08-03T10:16:53.313Z,101038.00
2022-08-03T10:19:26.647Z,101031.59
2022-08-03T10:22:05.131Z,101033.50
2022-08-03T10:24:43.480Z,101024.78
2022-08-03T10:27:18.174Z,101024.84
2022-08-03T10:29:54.702Z,101029.44
2022-08-03T10:32:31.721Z,101024.94
2022-08-03T10:35:19.155Z,101019.53
2022-08-03T10:37:59.816Z,101015.91
2022-08-03T10:40:52.675Z,101011.31
2022-08-03T10:43:35.868Z,101014.00
2022-08-03T10:46:09.766Z,101019.44
2022-08-03T10:48:43.330Z,101018.47
2022-08-03T10:51:17.019Z,101020.06
2022-08-03T10:53:54.260Z,101010.84
2022-08-03T10:57:03.388Z,101009.94
2022-08-03T10:59:58.111Z,101009.69
2022-08-03T11:03:08.708Z,101016.75
2022-08-03T11:05:43.361Z,101022.19
2022-08-03T11:08:38.142Z,101010.44
2022-08-03T11:11:28.455Z,101010.50
2022-08-03T11:14:05.706Z,101016.81
2022-08-03T11:16:40.977Z,101011.19
2022-08-03T11:19:17.625Z,101015.06
2022-08-03T11:21:55.181Z,101019.81
2022-08-03T11:25:02.099Z,101019.94
2022-08-03T11:27:35.306Z,101011.84
2022-08-03T11:30:11.656Z,101014.50
2022-08-03T11:33:01.886Z,101012.84
2022-08-03T11:35:36.521Z,101019.06
2022-08-03T11:38:12.146Z,101024.34
2022-08-03T11:40:47.359Z,101008.91
2022-08-03T11:43:46.332Z,101018.44
2022-08-03T11:46:29.721Z,101007.44
2022-08-03T11:49:10.293Z,101018.94
2022-08-03T11:51:44.188Z,101004.78
2022-08-03T11:54:27.212Z,101007.56
2022-08-03T11:57:00.078Z,101011.94
2022-08-03T11:59:34.106Z,101009.91
2022-08-03T12:02:09.559Z,101005.84
2022-08-03T12:04:51.310Z,101010.03
2022-08-03T12:08:02.457Z,101008.25
2022-08-03T12:10:17.286Z,101000.31
2022-08-03T12:12:56.995Z,101006.56
2022-08-03T12:15:31.827Z,101003.91
2022-08-03T12:18:15.766Z,100994.19
2022-08-03T12:20:50.130Z,100996.81
2022-08-03T12:23:23.729Z,100993.41
2022-08-03T12:26:03.088Z,100978.88
2022-08-03T12:28:38.422Z,100993.47
2022-08-03T12:31:11.799Z,100985.69
2022-08-03T12:34:01.882Z,100992.56
2022-08-03T12:36:37.444Z,100988.91
2022-08-03T12:39:11.803Z,100989.75
2022-08-03T12:41:45.793Z,100992.34
2022-08-03T12:44:18.924Z,100986.25
2022-08-03T12:46:59.304Z,100980.16
2022-08-03T12:49:46.105Z,100978.38
2022-08-03T12:52:20.722Z,100975.88
2022-08-03T12:54:57.699Z,100987.69
2022-08-03T12:57:41.720Z,100991.22
2022-08-03T13:00:21.447Z,100989.31
2022-08-03T13:03:39.796Z,100981.91
2022-08-03T13:05:58.472Z,100984.47
2022-08-03T13:08:31.503Z,100985.53
2022-08-03T13:11:19.558Z,100981.13
2022-08-03T13:13:53.890Z,100988.47
2022-08-03T13:16:27.336Z,100987.38
2022-08-03T13:19:00.351Z,100989.53
2022-08-03T13:21:34.717Z,100986.47
2022-08-03T13:24:26.312Z,100992.94
2022-08-03T13:26:59.573Z,100985.78
2022-08-03T13:29:36.831Z,100988.53
2022-08-03T13:32:10.495Z,100985.00
2022-08-03T13:34:43.586Z,100973.78
2022-08-03T13:37:18.113Z,100986.44
2022-08-03T13:39:59.369Z,100983.19
2022-08-03T13:42:35.251Z,100976.34
2022-08-03T13:45:09.787Z,100977.81
2022-08-03T13:47:42.814Z,100980.38
2022-08-03T13:50:16.185Z,100978.53
2022-08-03T13:52:50.448Z,100979.72
2022-08-03T13:55:23.510Z,100980.75
2022-08-03T13:58:06.332Z,100974.16
2022-08-03T14:00:40.713Z,100972.75
2022-08-03T14:03:14.701Z,100967.53
2022-08-03T14:05:48.197Z,100966.47
2022-08-03T14:08:22.539Z,100963.03
2022-08-03T14:10:55.660Z,100962.00
2022-08-03T14:13:29.739Z,100957.50
2022-08-03T14:16:03.321Z,100970.94
2022-08-03T14:18:36.896Z,100957.88
2022-08-03T14:21:14.751Z,100958.28
2022-08-03T14:23:48.921Z,100956.72
2022-08-03T14:26:21.983Z,100954.00
2022-08-03T14:28:55.729Z,100952.44
2022-08-03T14:32:11.161Z,100960.63
2022-08-03T14:34:21.560Z,100950.66
2022-08-03T14:36:54.563Z,100948.78
2022-08-03T14:39:58.277Z,100949.63
2022-08-03T14:42:21.894Z,100957.56
2022-08-03T14:44:58.833Z,100955.75
2022-08-03T14:47:36.430Z,100955.97
2022-08-03T14:50:41.632Z,100942.56
2022-08-03T14:53:17.821Z,100946.94
2022-08-03T14:55:53.317Z,100939.81
2022-08-03T14:58:26.731Z,100933.69
2022-08-03T15:00:59.746Z,100940.22
2022-08-03T15:03:32.761Z,100943.09
2022-08-03T15:06:05.617Z,100938.88
2022-08-03T15:08:38.691Z,100939.97
2022-08-03T15:11:12.909Z,100933.72
2022-08-03T15:13:46.043Z,100939.13
2022-08-03T15:16:18.890Z,100925.03
2022-08-03T15:18:51.847Z,100927.69
2022-08-03T15:21:46.609Z,100936.06
2022-08-03T15:24:17.733Z,100932.91
2022-08-03T15:26:52.068Z,100924.22
2022-08-03T15:30:06.148Z,100924.59
2022-08-03T15:32:19.111Z,100924.47
2022-08-03T15:34:52.776Z,100923.38
2022-08-03T15:37:26.749Z,100928.09
2022-08-03T15:40:01.319Z,100919.41
2022-08-03T15:42:35.687Z,100924.06
2022-08-03T15:45:09.635Z,100923.16
2022-08-03T15:47:42.542Z,100919.75
2022-08-03T15:50:15.512Z,100916.53
2022-08-03T15:52:49.410Z,100923.06
2022-08-03T15:55:22.514Z,100924.13
2022-08-03T15:59:04.552Z,100925.16
2022-08-03T16:00:49.917Z,100920.75
2022-08-03T16:03:22.753Z,100917.25
2022-08-03T16:05:56.012Z,100913.72
2022-08-03T16:08:28.868Z,100920.41
2022-08-03T16:11:02.111Z,100918.34
2022-08-03T16:14:13.350Z,100921.91
2022-08-03T16:16:29.817Z,100914.84
2022-08-03T16:19:05.575Z,100913.19
2022-08-03T16:21:47.958Z,100916.63
2022-08-03T16:24:27.858Z,100909.38
2022-08-03T16:27:01.167Z,100921.38
2022-08-03T16:29:35.993Z,100918.06
2022-08-03T16:32:09.646Z,100920.25
2022-08-03T16:34:43.202Z,100920.25
2022-08-03T16:37:37.493Z,100915.53
2022-08-03T16:40:17.423Z,100916.75
2022-08-03T16:42:52.472Z,100918.72
2022-08-03T16:45:27.024Z,100921.47
2022-08-03T16:48:05.491Z,100917.00
2022-08-03T16:50:39.136Z,100917.22
2022-08-03T16:53:16.565Z,100917.34
2022-08-03T16:55:53.654Z,100922.75
2022-08-03T16:58:41.297Z,100917.41
2022-08-03T17:01:24.594Z,100923.63
2022-08-03T17:04:03.556Z,100915.66
2022-08-03T17:06:44.645Z,100915.72
2022-08-03T17:09:20.587Z,100922.94
2022-08-03T17:11:53.685Z,100917.66
2022-08-03T17:14:28.514Z,100914.06
2022-08-03T17:17:07.196Z,100920.31
2022-08-03T17:19:41.656Z,100917.63
2022-08-03T17:22:23.647Z,100922.16
2022-08-03T17:24:59.121Z,100919.53
2022-08-03T17:28:49.200Z,100917.84
2022-08-03T17:30:48.964Z,100916.22
2022-08-03T17:33:23.648Z,100922.50
2022-08-03T17:35:58.551Z,100928.75
2022-08-03T17:38:32.017Z,100924.31
2022-08-03T17:41:11.066Z,100923.44
2022-08-03T17:44:15.309Z,100926.16
2022-08-03T17:46:41.597Z,100922.59
2022-08-03T17:49:23.759Z,100924.50
2022-08-03T17:52:02.961Z,100916.50
2022-08-03T17:55:50.686Z,100921.84
2022-08-03T17:58:02.004Z,100918.38
2022-08-03T18:00:55.406Z,100913.13
2022-08-03T18:03:56.957Z,100913.19
2022-08-03T18:06:37.528Z,100921.34
2022-08-03T18:10:06.695Z,100918.78
2022-08-03T18:12:28.940Z,100925.13
2022-08-03T18:15:08.312Z,100928.78
2022-08-03T18:17:55.874Z,100929.78
2022-08-03T18:20:41.022Z,100923.50
2022-08-03T18:23:25.417Z,100925.31
2022-08-03T18:26:12.210Z,100929.78
2022-08-03T18:28:45.649Z,100929.81
2022-08-03T18:31:59.766Z,100928.97
2022-08-03T18:34:32.923Z,100929.91
2022-08-03T18:37:08.165Z,100935.31
2022-08-03T18:39:50.144Z,100927.31
2022-08-03T18:42:27.093Z,100921.97
2022-08-03T18:45:15.061Z,100928.25
2022-08-03T18:48:04.909Z,100926.50
2022-08-03T18:50:46.450Z,100931.88
2022-08-03T18:54:02.225Z,100936.41
2022-08-03T18:56:35.673Z,100939.16
2022-08-03T18:59:17.182Z,100944.53
2022-08-03T19:02:19.778Z,100945.47
2022-08-03T19:05:04.448Z,100949.09
2022-08-03T19:07:40.361Z,100947.34
2022-08-03T19:10:16.068Z,100948.31
2022-08-03T19:12:56.107Z,100953.69
2022-08-03T19:15:36.416Z,100958.19
2022-08-03T19:18:17.994Z,100960.91
2022-08-03T19:20:54.790Z,100956.47
2022-08-03T19:23:33.876Z,100959.16
2022-08-03T19:26:07.390Z,100956.53
2022-08-03T19:29:03.034Z,100960.16
2022-08-03T19:31:38.500Z,100966.41
2022-08-03T19:34:13.275Z,100964.66
2022-08-03T19:36:49.882Z,100970.91
2022-08-03T19:39:23.733Z,100969.16
2022-08-03T19:42:08.053Z,100967.38
2022-08-03T19:44:52.006Z,100969.19
2022-08-03T19:47:30.385Z,100966.56
2022-08-03T19:50:14.079Z,100964.78
2022-08-03T19:52:50.295Z,100959.47
2022-08-03T19:55:25.161Z,100970.16
2022-08-03T19:58:01.043Z,100977.31
2022-08-03T20:00:38.278Z,100975.50
2022-08-03T20:03:19.651Z,100977.28
2022-08-03T20:05:55.213Z,100982.63
2022-08-03T20:08:28.565Z,100976.41
2022-08-03T20:11:02.023Z,100977.28
2022-08-03T20:13:39.055Z,100977.31
2022-08-03T20:16:17.922Z,100977.31
2022-08-03T20:18:51.138Z,100976.44
2022-08-03T20:21:28.311Z,100977.28
2022-08-03T20:27:05.181Z,100986.19
2022-08-03T20:30:06.784Z,100985.31
2022-08-03T20:32:41.805Z,100984.41
2022-08-03T20:35:16.199Z,100989.75
2022-08-03T20:37:49.200Z,100996.84
2022-08-03T20:40:23.415Z,100986.19
2022-08-03T20:43:01.603Z,100992.38
2022-08-03T20:45:59.884Z,100996.81
2022-08-03T20:48:29.644Z,100987.88
2022-08-03T20:51:05.021Z,100995.88
2022-08-03T20:53:59.759Z,101002.03
2022-08-03T20:56:35.592Z,101002.03
2022-08-03T20:59:14.871Z,101004.69
2022-08-03T21:01:48.373Z,100997.53
2022-08-03T21:04:24.090Z,101001.94
2022-08-03T21:07:01.915Z,101001.94
2022-08-03T21:09:49.402Z,101008.09
2022-08-03T21:12:36.534Z,101000.94
2022-08-03T21:13:13.458Z,100979.06
2022-08-03T21:15:15.864Z,101016.03
2022-08-03T21:18:13.780Z,101014.22
2022-08-03T21:20:48.789Z,101014.22
2022-08-03T21:23:35.173Z,101014.16
2022-08-03T21:26:18.063Z,101015.00
2022-08-03T21:28:53.142Z,101012.31
2022-08-03T21:31:27.066Z,101014.94
2022-08-03T21:34:03.295Z,101011.31
2022-08-03T21:36:38.438Z,101007.75
2022-08-03T21:39:12.630Z,101011.28
2022-08-03T21:41:46.708Z,101012.16
2022-08-03T21:44:28.828Z,101014.75
2022-08-03T21:47:03.662Z,101018.25
2022-08-03T21:50:05.078Z,101004.03
2022-08-03T21:52:34.815Z,101015.53
2022-08-03T21:55:08.871Z,101015.56
2022-08-03T21:57:53.834Z,101012.00
2022-08-03T22:00:27.599Z,101022.59
2022-08-03T22:03:15.215Z,101016.34
2022-08-03T22:05:53.336Z,101023.41
2022-08-03T22:08:39.616Z,101020.69
2022-08-03T22:11:12.663Z,101017.97
2022-08-03T22:13:45.878Z,101011.72
2022-08-03T22:16:18.913Z,101012.53
2022-08-03T22:18:52.162Z,101005.41
2022-08-03T22:21:36.077Z,101015.13
2022-08-03T22:24:11.629Z,101019.50
2022-08-03T22:27:05.662Z,101016.75
2022-08-03T22:29:40.912Z,101012.28
2022-08-03T22:32:13.813Z,101016.66
2022-08-03T22:34:48.544Z,101015.72
2022-08-03T22:37:25.828Z,101022.78
2022-08-03T22:40:03.887Z,101020.97
2022-08-03T22:42:36.951Z,101019.13
2022-08-03T22:45:10.643Z,101021.75
2022-08-03T22:48:05.645Z,101025.25
2022-08-03T22:50:39.299Z,101037.63
2022-08-03T22:53:17.256Z,101029.63
2022-08-03T22:55:53.031Z,101026.03
2022-08-03T22:58:26.154Z,101029.53
2022-08-03T23:01:04.061Z,101028.59
2022-08-03T23:04:01.040Z,101035.66
2022-08-03T23:06:36.537Z,101032.16
2022-08-03T23:09:12.357Z,101031.16
2022-08-03T23:11:47.936Z,101029.31
2022-08-03T23:14:23.397Z,101025.78
2022-08-03T23:16:57.345Z,101033.63
2022-08-03T23:19:34.331Z,101026.56
2022-08-03T23:22:29.640Z,101026.56
2022-08-03T23:25:04.781Z,101035.41
2022-08-03T23:27:41.108Z,101025.59
2022-08-03T23:30:14.555Z,101030.06
2022-08-03T23:32:54.678Z,101030.91
2022-08-03T23:36:28.014Z,101038.84
2022-08-03T23:38:39.055Z,101030.84
2022-08-03T23:41:14.523Z,101033.47
2022-08-03T23:43:51.603Z,101030.72
2022-08-03T23:46:26.909Z,101030.66
2022-08-03T23:49:00.343Z,101029.72
2022-08-03T23:51:43.125Z,101028.78
2022-08-03T23:54:29.497Z,101029.63
2022-08-03T23:57:12.341Z,101033.13
2022-08-03T23:59:54.682Z,101032.19
